Time;durP1;ratioP1;P1;durP2;ratioP2;P2;SDS_P1;SDS_P2;PMS_P1;PMS_P2;Temp;Humidity;BMP_temperature;BMP_pressure;BME280_temperature;BME280_humidity;BME280_pressure;Samples;Min_cycle;Max_cycle;Signal;HPM_P1;HPM_P2
2021/11/01 00:00:18;;;;;;;69.92;37.90;;;;;;;1.58;100.00;100828.89;1786984;80;21122;-78
2021/11/01 00:02:46;;;;;;;57.25;29.15;;;;;;;1.59;100.00;100830.22;1768483;80;20985;-78
2021/11/01 00:05:12;;;;;;;77.97;37.30;;;;;;;1.59;100.00;100822.86;1771376;80;21495;-77
2021/11/01 00:07:40;;;;;;;74.15;35.88;;;;;;;1.51;100.00;100823.19;1778060;80;21072;-80
2021/11/01 00:10:07;;;;;;;98.33;46.92;;;;;;;1.51;100.00;100823.19;1776816;80;21136;-79
2021/11/01 00:12:33;;;;;;;87.72;42.17;;;;;;;1.54;100.00;100819.32;1777515;80;21456;-80
2021/11/01 00:15:00;;;;;;;60.25;31.52;;;;;;;1.56;100.00;100820.21;1778715;80;21008;-79
2021/11/01 00:17:28;;;;;;;86.05;39.75;;;;;;;1.56;100.00;100811.13;1778529;80;21100;-80
2021/11/01 00:19:55;;;;;;;72.47;37.13;;;;;;;1.54;100.00;100819.32;1778116;80;21404;-79
2021/11/01 00:22:22;;;;;;;77.17;39.95;;;;;;;1.50;100.00;100817.57;1778496;80;21051;-77
2021/11/01 00:24:49;;;;;;;80.90;41.28;;;;;;;1.48;100.00;100814.95;1778392;80;21940;-78
2021/11/01 00:27:16;;;;;;;50.70;25.32;;;;;;;1.42;100.00;100813.14;1778130;80;21037;-78
2021/11/01 00:29:43;;;;;;;88.85;42.55;;;;;;;1.38;100.00;100811.39;1779900;80;21040;-75
2021/11/01 00:32:11;;;;;;;82.05;41.15;;;;;;;1.39;100.00;100809.22;1779444;80;21025;-76
2021/11/01 00:34:40;;;;;;;83.75;41.08;;;;;;;1.35;100.00;100806.14;1780827;80;21104;-77
2021/11/01 00:37:06;;;;;;;81.72;41.90;;;;;;;1.34;100.00;100804.41;1780809;80;21147;-77
2021/11/01 00:39:33;;;;;;;85.03;42.60;;;;;;;1.32;100.00;100804.81;1779171;80;20989;-77
2021/11/01 00:42:00;;;;;;;82.57;42.53;;;;;;;1.31;100.00;100803.48;1778433;80;21600;-77
2021/11/01 00:44:27;;;;;;;85.53;41.95;;;;;;;1.29;100.00;100802.59;1778405;80;21025;-78
2021/11/01 00:46:53;;;;;;;65.20;35.52;;;;;;;1.22;100.00;100800.35;1777889;80;21124;-79
2021/11/01 00:49:19;;;;;;;89.52;46.18;;;;;;;1.17;100.00;100801.59;1778065;80;21493;-78
2021/11/01 00:51:47;;;;;;;78.30;39.70;;;;;;;1.14;100.00;100795.52;1778617;80;21041;-78
2021/11/01 00:54:13;;;;;;;82.00;42.53;;;;;;;1.08;100.00;100794.14;1778373;80;21666;-79
2021/11/01 00:56:40;;;;;;;87.25;44.75;;;;;;;1.04;100.00;100792.81;1778071;80;21002;-78
2021/11/01 00:59:06;;;;;;;74.85;39.13;;;;;;;1.01;100.00;100787.59;1778277;80;20997;-77
2021/11/01 01:01:34;;;;;;;88.78;44.60;;;;;;;0.96;100.00;100791.83;1778474;80;22196;-77
2021/11/01 01:04:01;;;;;;;59.73;30.37;;;;;;;0.93;100.00;100793.53;1778010;80;21021;-77
2021/11/01 01:06:29;;;;;;;100.33;47.70;;;;;;;0.87;100.00;100786.52;1778291;80;21095;-76
2021/11/01 01:08:55;;;;;;;81.08;43.17;;;;;;;0.88;100.00;100785.70;1778129;80;21060;-76
2021/11/01 01:11:24;;;;;;;85.70;43.28;;;;;;;0.84;100.00;100787.36;1778018;80;21100;-76
2021/11/01 01:13:52;;;;;;;84.60;44.27;;;;;;;0.80;100.00;100788.59;1778144;80;21135;-76
2021/11/01 01:18:49;;;;;;;85.85;42.55;;;;;;;0.73;100.00;100784.19;1778375;80;21033;-77
2021/11/01 01:24:01;;;;;;;63.02;33.10;;;;;;;0.70;100.00;100782.86;1778279;80;21057;-77
2021/11/01 01:26:28;;;;;;;80.20;43.28;;;;;;;0.63;100.00;100777.58;1778895;80;21076;-77
2021/11/01 01:28:54;;;;;;;83.82;43.17;;;;;;;0.62;100.00;100778.44;1778205;80;21072;-78
2021/11/01 01:31:20;;;;;;;63.15;32.60;;;;;;;0.57;100.00;100769.70;1778151;80;21072;-77
2021/11/01 01:33:47;;;;;;;85.00;41.68;;;;;;;0.58;100.00;100773.19;1777972;80;21574;-78
2021/11/01 01:36:13;;;;;;;84.17;40.17;;;;;;;0.55;100.00;100764.95;1778289;80;21055;-74
2021/11/01 01:38:40;;;;;;;57.90;31.12;;;;;;;0.51;100.00;100765.75;1778119;80;21040;-75
2021/11/01 01:41:26;;;;;;;79.25;40.78;;;;;;;0.50;100.00;100767.02;1778122;80;21064;-74
2021/11/01 01:43:56;;;;;;;76.87;38.38;;;;;;;0.43;100.00;100759.58;1778289;80;21037;-74
2021/11/01 01:46:24;;;;;;;85.10;42.27;;;;;;;0.38;100.00;100759.51;1777242;80;21096;-76
2021/11/01 01:48:52;;;;;;;81.72;39.65;;;;;;;0.33;100.00;100757.72;1710106;83;22298;-76
2021/11/01 01:51:21;;;;;;;68.30;34.48;;;;;;;0.31;100.00;100760.70;1710342;83;21127;-76
2021/11/01 01:53:49;;;;;;;83.27;44.83;;;;;;;0.31;100.00;100760.70;1715151;83;21042;-78
2021/11/01 01:56:15;;;;;;;82.55;40.40;;;;;;;0.30;100.00;100759.84;1775892;80;21070;-76
2021/11/01 01:58:49;;;;;;;75.17;37.70;;;;;;;0.28;100.00;100758.08;1710316;83;21061;-77
2021/11/01 02:01:17;;;;;;;91.82;47.33;;;;;;;0.27;100.00;100753.73;1710462;83;22179;-76
2021/11/01 02:03:46;;;;;;;86.02;43.08;;;;;;;0.26;100.00;100752.00;1710089;83;21136;-76
2021/11/01 02:06:38;;;;;;;88.05;43.45;;;;;;;0.25;100.00;100752.83;1776438;80;21037;-76
2021/11/01 02:09:18;;;;;;;85.38;44.95;;;;;;;0.23;100.00;100762.30;1768148;80;21544;-77
2021/11/01 02:12:05;;;;;;;68.65;33.58;;;;;;;0.20;100.00;100743.27;1710428;83;21122;-79
2021/11/01 02:14:54;;;;;;;77.47;41.05;;;;;;;0.20;100.00;100748.45;1710525;83;21070;-81
2021/11/01 02:17:25;;;;;;;92.45;44.80;;;;;;;0.23;100.00;100746.75;1709910;83;21557;-78
2021/11/01 02:19:53;;;;;;;90.00;44.95;;;;;;;0.27;100.00;100748.55;1710248;83;21118;-79
2021/11/01 02:22:33;;;;;;;90.65;46.58;;;;;;;0.28;100.00;100743.83;1746140;80;21096;-78
2021/11/01 02:25:26;;;;;;;96.17;46.08;;;;;;;0.32;100.00;100743.00;1777204;80;21521;-78
2021/11/01 02:27:52;;;;;;;74.00;37.58;;;;;;;0.32;100.00;100742.60;1776767;80;21030;-78
2021/11/01 02:30:19;;;;;;;94.15;49.08;;;;;;;0.34;100.00;100747.35;1710419;83;21096;-79
2021/11/01 02:32:45;;;;;;;90.45;47.62;;;;;;;0.36;100.00;100735.73;1710093;83;21058;-78
2021/11/01 02:35:12;;;;;;;78.87;37.40;;;;;;;0.36;100.00;100739.18;1710650;83;21030;-80
2021/11/01 02:37:40;;;;;;;94.90;50.67;;;;;;;0.40;100.00;100742.70;1710294;83;21613;-80
2021/11/01 02:40:09;;;;;;;98.87;48.25;;;;;;;0.41;100.00;100732.77;1710831;83;21038;-80
2021/11/01 02:42:36;;;;;;;101.50;50.00;;;;;;;0.42;100.00;100738.41;1710365;83;21140;-77
2021/11/01 02:45:09;;;;;;;90.38;47.62;;;;;;;0.40;100.00;100738.81;1776700;80;21006;-78
2021/11/01 02:47:36;;;;;;;100.12;49.48;;;;;;;0.43;100.00;100736.25;1710226;83;21042;-78
2021/11/01 02:50:08;;;;;;;94.75;51.92;;;;;;;0.44;100.00;100735.42;1710333;83;21042;-78
2021/11/01 02:52:35;;;;;;;90.65;47.93;;;;;;;0.43;100.00;100734.95;1710615;83;21588;-76
2021/11/01 02:55:05;;;;;;;61.33;33.73;;;;;;;0.43;100.00;100734.95;1710254;83;21155;-76
2021/11/01 02:57:33;;;;;;;94.83;52.98;;;;;;;0.43;100.00;100732.37;1710777;83;21078;-77
2021/11/01 03:00:01;;;;;;;90.80;46.63;;;;;;;0.46;100.00;100728.94;1710391;83;21102;-76
2021/11/01 03:02:27;;;;;;;84.55;42.48;;;;;;;0.43;100.00;100728.48;1777243;80;21084;-75
2021/11/01 03:04:53;;;;;;;89.40;47.20;;;;;;;0.42;100.00;100728.05;1697226;83;21119;-78
2021/11/01 03:07:21;;;;;;;70.90;39.27;;;;;;;0.43;100.00;100724.59;1765855;81;21158;-77
2021/11/01 03:09:48;;;;;;;90.70;48.85;;;;;;;0.44;100.00;100721.17;1765655;81;21041;-77
2021/11/01 03:12:17;;;;;;;77.67;42.10;;;;;;;0.46;100.00;100722.06;1766041;81;21068;-81
2021/11/01 03:14:51;;;;;;;63.92;34.70;;;;;;;0.48;100.00;100733.30;1766259;81;21045;-82
2021/11/01 03:17:22;;;;;;;101.45;49.83;;;;;;;0.49;100.00;100727.28;1738198;81;21112;-81
2021/11/01 03:19:51;;;;;;;85.42;43.10;;;;;;;0.47;100.00;100722.93;1766079;81;21519;-81
2021/11/01 03:22:18;;;;;;;91.50;48.35;;;;;;;0.45;100.00;100719.45;1765192;81;21565;-81
2021/11/01 03:24:50;;;;;;;88.07;50.85;;;;;;;0.44;100.00;100718.98;1766794;81;20997;-84
2021/11/01 03:27:19;;;;;;;84.83;46.02;;;;;;;0.43;100.00;100715.95;1766583;81;21421;-83
2021/11/01 03:29:46;;;;;;;91.10;47.30;;;;;;;0.46;100.00;100714.30;1721892;80;21012;-83
2021/11/01 03:32:12;;;;;;;79.20;42.60;;;;;;;0.49;100.00;100709.14;1779494;80;21060;-84
2021/11/01 03:34:39;;;;;;;86.42;47.00;;;;;;;0.36;100.00;100676.13;1779073;80;21548;-84
2021/11/01 03:37:11;;;;;;;84.60;47.00;;;;;;;0.54;100.00;100700.99;1780130;80;21519;-83
2021/11/01 03:39:39;;;;;;;83.17;45.38;;;;;;;0.58;100.00;100700.63;1781548;80;21014;-83
2021/11/01 03:42:08;;;;;;;83.95;45.17;;;;;;;0.65;100.00;100697.69;1780132;80;21022;-82
2021/11/01 03:44:38;;;;;;;87.27;46.92;;;;;;;0.71;100.00;100695.14;1778909;80;22012;-82
2021/11/01 03:47:05;;;;;;;63.53;35.07;;;;;;;0.71;100.00;100692.55;1778616;80;22232;-82
2021/11/01 03:49:37;;;;;;;89.97;47.62;;;;;;;0.69;100.00;100698.14;1778689;80;21057;-82
2021/11/01 03:52:09;;;;;;;68.87;37.85;;;;;;;0.66;100.00;100692.93;1778086;80;21105;-81
2021/11/01 03:54:31;;;;;;;84.00;44.88;;;;;;;0.63;100.00;100690.73;1777035;80;21248;-80
2021/11/01 03:56:58;;;;;;;88.58;47.93;;;;;;;0.62;100.00;100691.61;1709058;83;21148;-75
2021/11/01 03:59:27;;;;;;;78.40;41.77;;;;;;;0.61;100.00;100689.84;1691044;83;21078;-76
2021/11/01 04:01:53;;;;;;;94.03;50.23;;;;;;;0.62;100.00;100690.31;1689435;83;21914;-78
2021/11/01 04:04:20;;;;;;;80.87;43.25;;;;;;;0.67;100.00;100681.69;1767046;80;21076;-74
2021/11/01 04:06:47;;;;;;;84.85;47.23;;;;;;;0.72;100.00;100683.51;1765825;80;21052;-71
2021/11/01 04:09:16;;;;;;;97.17;49.73;;;;;;;0.75;100.00;100681.37;1776809;80;21037;-72
2021/11/01 04:11:43;;;;;;;103.42;47.40;;;;;;;0.78;100.00;100674.91;1773785;80;21559;-73
2021/11/01 04:14:16;;;;;;;88.30;48.42;;;;;;;0.82;100.00;100672.81;1752629;81;21016;-72
2021/11/01 04:16:46;;;;;;;84.35;44.90;;;;;;;0.82;100.00;100672.81;1752699;81;21663;-74
2021/11/01 04:21:43;;;;;;;88.50;49.33;;;;;;;0.90;100.00;100676.38;1752343;81;21772;-73
2021/11/01 04:24:11;;;;;;;83.12;45.78;;;;;;;1.07;100.00;100671.79;1751955;81;21103;-73
2021/11/01 04:26:38;;;;;;;87.97;46.88;;;;;;;1.14;100.00;100670.99;1751788;81;21065;-74
2021/11/01 04:29:07;;;;;;;98.07;51.98;;;;;;;1.21;100.00;100662.41;1751739;81;21033;-73
2021/11/01 04:31:37;;;;;;;87.45;48.85;;;;;;;1.29;100.00;100664.67;1752149;81;21075;-74
2021/11/01 04:34:17;;;;;;;96.30;51.37;;;;;;;1.37;100.00;100659.10;1752450;81;21639;-73
2021/11/01 04:36:32;;;;;;;83.97;46.55;;;;;;;1.49;100.00;100658.77;1748653;81;21536;-73
2021/11/01 04:39:09;;;;;;;85.45;48.60;;;;;;;1.60;100.00;100650.20;1752708;81;21111;-73
2021/11/01 04:41:38;;;;;;;92.60;47.95;;;;;;;1.65;100.00;100655.44;1749950;81;22260;-73
2021/11/01 04:54:41;;;;;;;83.72;47.27;;;;;;;1.74;100.00;100654.20;1764617;80;21009;-72
2021/11/01 04:57:08;;;;;;;94.87;49.63;;;;;;;1.79;100.00;100652.50;1759076;80;21104;-70
2021/11/01 04:59:39;;;;;;;95.17;47.30;;;;;;;1.83;100.00;100649.08;1770283;80;21523;-72
2021/11/01 05:02:05;;;;;;;87.40;47.67;;;;;;;1.85;100.00;100652.56;1766672;80;21140;-73
2021/11/01 05:04:35;;;;;;;97.90;47.65;;;;;;;1.89;100.00;100656.06;1750720;80;21057;-72
2021/11/01 05:07:02;;;;;;;98.65;49.13;;;;;;;1.91;100.00;100658.64;1752986;81;21044;-72
2021/11/01 05:09:37;;;;;;;90.45;47.83;;;;;;;1.91;100.00;100658.64;1753220;81;21000;-72
2021/11/01 05:12:39;;;;;;;90.80;47.27;;;;;;;1.94;100.00;100654.36;1753166;81;21151;-74
2021/11/01 05:14:50;;;;;;;88.17;47.95;;;;;;;1.97;100.00;100654.36;1737568;81;21535;-73
2021/11/01 05:19:34;;;;;;;88.25;48.08;;;;;;;2.02;100.00;100656.99;1747061;82;20985;-74
2021/11/01 05:22:24;;;;;;;87.50;48.38;;;;;;;2.03;100.00;100663.95;1752113;80;21370;-74
2021/11/01 05:24:55;;;;;;;87.35;47.50;;;;;;;2.03;100.00;100652.25;1771154;80;21207;-72
2021/11/01 05:29:47;;;;;;;87.47;44.48;;;;;;;2.07;100.00;100657.48;1757191;80;21504;-73
2021/11/01 05:32:18;;;;;;;80.00;44.67;;;;;;;2.10;100.00;100663.13;1764804;80;21519;-72
2021/11/01 05:34:39;;;;;;;80.55;44.65;;;;;;;2.10;100.00;100656.63;1751718;80;21655;-74
2021/11/01 05:37:07;;;;;;;84.72;44.80;;;;;;;2.11;100.00;100657.05;1759618;80;21127;-72
2021/11/01 05:39:35;;;;;;;73.52;39.27;;;;;;;2.12;100.00;100654.91;1759767;80;21020;-75
2021/11/01 05:42:02;;;;;;;90.25;48.98;;;;;;;2.15;100.00;100656.22;1756648;80;21078;-74
2021/11/01 05:44:29;;;;;;;84.13;46.40;;;;;;;2.23;100.00;100651.05;1758730;80;21016;-72
2021/11/01 05:46:55;;;;;;;77.75;42.83;;;;;;;2.23;100.00;100651.05;1752481;80;21735;-73
2021/11/01 05:49:23;;;;;;;82.62;46.58;;;;;;;2.27;100.00;100656.27;1756985;80;21520;-73
2021/11/01 05:51:51;;;;;;;81.30;44.65;;;;;;;2.31;100.00;100656.73;1783715;80;21072;-73
2021/11/01 05:54:21;;;;;;;79.55;43.52;;;;;;;2.47;100.00;100662.02;1761394;80;20989;-73
2021/11/01 05:56:59;;;;;;;79.85;46.00;;;;;;;2.81;100.00;100666.05;1752935;80;21115;-73
2021/11/01 06:07:31;;;;;;;72.20;37.85;;;;;;;4.59;100.00;100666.84;1763014;80;21540;-72
2021/11/01 06:10:02;;;;;;;61.08;36.60;;;;;;;4.91;99.33;100668.89;1751853;80;21055;-75
2021/11/01 06:15:10;;;;;;;70.30;39.60;;;;;;;5.66;92.44;100671.86;1762554;80;21804;-73
2021/11/01 06:17:37;;;;;;;66.70;36.57;;;;;;;5.92;90.16;100673.38;1752583;80;21735;-74
2021/11/01 06:20:06;;;;;;;69.12;38.55;;;;;;;6.03;88.71;100665.03;1777622;80;21063;-74
2021/11/01 06:22:33;;;;;;;66.35;39.38;;;;;;;6.30;89.04;100665.61;1765342;80;21142;-73
2021/11/01 06:25:09;;;;;;;60.35;38.30;;;;;;;6.59;87.98;100670.97;1754834;79;21742;-74
2021/11/01 06:27:28;;;;;;;63.33;37.63;;;;;;;6.84;84.32;100664.98;1769009;80;21135;-73
2021/11/01 06:30:00;;;;;;;64.92;37.17;;;;;;;7.06;83.50;100655.95;1765042;80;21111;-74
2021/11/01 06:45:55;;;;;;;65.12;38.23;;;;;;;8.88;75.50;100653.61;1775022;80;21140;-73
2021/11/01 06:51:06;;;;;;;57.78;33.78;;;;;;;9.42;73.22;100645.81;1763496;80;20989;-75
2021/11/01 07:18:15;;;;;;;59.95;33.83;;;;;;;11.95;60.51;100626.58;1762647;80;21630;-73
2021/11/01 07:20:55;;;;;;;53.68;34.53;;;;;;;12.06;59.02;100624.05;1757561;80;21155;-72
2021/11/01 08:17:46;;;;;;;52.35;34.60;;;;;;;14.83;49.59;100591.93;1747900;80;21020;-73
2021/11/01 08:25:28;;;;;;;45.83;31.85;;;;;;;15.85;47.63;100572.34;1765411;80;21056;-74
2021/11/01 08:28:04;;;;;;;49.65;29.72;;;;;;;15.98;46.63;100572.10;1701437;83;21112;-73
2021/11/01 08:39:01;;;;;;;50.10;31.57;;;;;;;16.19;45.99;100571.91;1778625;80;21068;-71
2021/11/01 09:18:42;;;;;;;61.50;34.50;;;;;;;17.23;42.99;100530.24;1770650;80;21056;-72
2021/11/01 09:24:28;;;;;;;50.20;32.50;;;;;;;17.26;42.62;100534.05;1763620;80;21088;-73
2021/11/01 09:26:37;;;;;;;53.60;33.33;;;;;;;17.28;43.30;100522.84;1752829;80;21602;-72
2021/11/01 09:29:15;;;;;;;;;;;;;;;17.44;42.41;100515.25;1763577;80;21020;-73
2021/11/01 09:37:12;;;;;;;52.62;31.90;;;;;;;16.97;43.49;100507.30;1769357;80;21009;-73
2021/11/01 09:42:19;;;;;;;46.23;30.55;;;;;;;16.99;43.56;100509.41;1770798;80;21036;-70
2021/11/01 09:44:48;;;;;;;52.65;30.43;;;;;;;16.92;43.93;100505.39;1758726;80;21093;-73
2021/11/01 09:47:15;;;;;;;50.10;31.57;;;;;;;16.97;44.66;100507.30;1753417;80;21182;-73
2021/11/01 09:49:42;;;;;;;46.58;32.13;;;;;;;17.17;43.59;100495.99;1753069;80;21126;-73
2021/11/01 09:52:09;;;;;;;51.90;32.95;;;;;;;17.25;43.18;100492.39;1779769;80;21080;-73
2021/11/01 09:54:37;;;;;;;46.55;30.32;;;;;;;17.15;43.74;100488.57;1773493;80;21084;-73
2021/11/01 09:57:20;;;;;;;41.50;29.35;;;;;;;17.07;43.82;100482.83;1783947;80;21052;-72
2021/11/01 09:59:40;;;;;;;43.25;26.50;;;;;;;16.94;44.26;100483.55;1771701;80;21192;-75
2021/11/01 10:02:10;;;;;;;40.10;26.60;;;;;;;16.98;44.50;100476.27;1779454;80;21602;-71
2021/11/01 10:04:45;;;;;;;43.80;27.98;;;;;;;17.13;44.28;100469.17;1754615;80;21001;-73
2021/11/01 10:07:19;;;;;;;39.98;28.05;;;;;;;17.31;44.62;100473.41;1773386;80;21005;-72
2021/11/01 10:09:59;;;;;;;39.40;27.32;;;;;;;17.12;44.32;100460.34;1764325;80;21032;-73
2021/11/01 10:12:32;;;;;;;40.30;26.73;;;;;;;16.95;44.94;100462.64;1768412;80;21810;-73
2021/11/01 10:18:02;;;;;;;41.45;27.42;;;;;;;17.23;44.76;100466.81;1747768;80;21111;-72
2021/11/01 10:21:55;;;;;;;39.23;26.65;;;;;;;17.50;44.27;100466.97;1755479;79;22821;-72
2021/11/01 10:24:26;;;;;;;43.35;26.87;;;;;;;17.49;43.73;100451.48;1716273;83;21017;-71
2021/11/01 10:26:54;;;;;;;;;;;;;;;17.25;44.17;100459.12;1723156;82;21508;-71
2021/11/01 10:29:21;;;;;;;42.88;27.32;;;;;;;16.99;44.73;100442.89;1735839;82;20098;-72
2021/11/01 10:31:48;;;;;;;42.85;27.02;;;;;;;16.84;45.19;100440.27;1741962;82;21557;-73
2021/11/01 10:34:15;;;;;;;40.70;25.45;;;;;;;16.76;45.34;100439.36;1746521;82;21508;-74
2021/11/01 10:36:43;;;;;;;42.23;28.25;;;;;;;16.61;45.59;100440.23;1730445;82;21611;-74
2021/11/01 10:39:17;;;;;;;46.68;28.77;;;;;;;16.51;45.90;100434.11;1722062;83;21761;-73
2021/11/01 10:56:46;;;;;;;45.05;28.00;;;;;;;16.04;46.98;100428.34;1656236;84;21556;-74
2021/11/01 10:59:01;;;;;;;43.65;27.62;;;;;;;16.29;47.14;100433.63;1651022;86;21121;-73
2021/11/01 11:14:56;;;;;;;37.40;23.92;;;;;;;16.83;46.83;100410.16;1644313;87;21125;-74
2021/11/01 11:17:28;;;;;;;36.48;23.50;;;;;;;16.87;46.49;100408.19;1670691;84;21615;-73
2021/11/01 11:33:58;;;;;;;35.80;23.15;;;;;;;16.47;47.31;100390.06;1649015;87;21163;-74
2021/11/01 11:49:27;;;;;;;38.55;24.37;;;;;;;15.99;48.39;100363.99;1626660;87;21075;-76
2021/11/01 11:52:04;;;;;;;37.30;21.30;;;;;;;15.90;49.09;100364.50;1592871;89;21859;-75
2021/11/01 11:54:38;;;;;;;32.63;22.32;;;;;;;16.17;50.67;100362.08;1657698;84;21117;-74
2021/11/01 11:57:30;;;;;;;37.48;23.62;;;;;;;16.38;48.18;100360.02;1679832;84;21066;-75
2021/11/01 11:59:59;;;;;;;37.60;22.98;;;;;;;16.28;48.16;100354.83;1683315;84;21771;-74
2021/11/01 12:02:44;;;;;;;41.02;24.23;;;;;;;16.47;48.29;100351.52;1673353;84;21742;-75
2021/11/01 12:05:19;;;;;;;36.53;22.58;;;;;;;16.56;47.27;100352.31;1684801;84;22098;-75
2021/11/01 12:07:51;;;;;;;44.45;25.35;;;;;;;16.49;47.32;100346.94;1689595;84;21057;-74
2021/11/01 12:13:05;;;;;;;39.33;25.02;;;;;;;16.37;47.64;100334.38;1641434;83;22225;-75
2021/11/01 12:18:05;;;;;;;40.23;22.42;;;;;;;16.19;48.10;100338.09;1679563;84;20194;-71
2021/11/01 12:20:31;;;;;;;51.83;24.35;;;;;;;15.87;48.84;100340.30;1655226;84;21097;-71
2021/11/01 12:23:03;;;;;;;44.75;25.48;;;;;;;15.73;50.13;100339.74;1680269;84;21089;-73
2021/11/01 12:25:39;;;;;;;31.82;19.82;;;;;;;15.67;49.81;100329.42;1717159;82;21639;-71
2021/11/01 12:28:15;;;;;;;35.23;21.77;;;;;;;15.38;50.06;100324.83;1721558;81;21085;-70
2021/11/01 12:30:50;;;;;;;39.65;27.07;;;;;;;15.20;52.86;100324.86;1708601;83;21101;-71
2021/11/01 12:33:20;;;;;;;45.08;26.65;;;;;;;15.20;51.04;100336.80;1704522;83;21758;-72
2021/11/01 12:35:49;;;;;;;43.40;27.70;;;;;;;15.06;51.36;100329.57;1694129;83;21105;-72
2021/11/01 12:38:21;;;;;;;43.25;25.37;;;;;;;15.06;51.52;100330.05;1721468;83;21288;-69
2021/11/01 12:59:46;;;;;;;44.65;26.73;;;;;;;14.24;54.35;100306.77;1711403;82;21082;-80
2021/11/01 13:02:31;;;;;;;38.08;23.15;;;;;;;13.97;55.29;100319.13;1709002;82;21046;-77
2021/11/01 13:05:01;;;;;;;36.55;23.02;;;;;;;13.69;55.96;100317.38;1703877;83;21144;-80
2021/11/01 13:18:36;;;;;;;35.80;24.02;;;;;;;12.62;61.46;100315.93;1706098;82;21507;-71
2021/11/01 13:21:13;;;;;;;44.10;27.62;;;;;;;12.43;62.43;100304.44;1706817;80;21086;-84
2021/11/01 13:23:40;;;;;;;55.58;28.75;;;;;;;12.34;62.84;100314.45;1709455;82;22227;-83
2021/11/01 13:26:23;;;;;;;49.50;26.77;;;;;;;12.28;63.04;100306.77;1718282;82;21057;-77
2021/11/01 13:37:28;;;;;;;49.33;28.35;;;;;;;11.83;65.05;100299.77;1701185;83;21113;-80
2021/11/01 13:40:11;;;;;;;45.67;29.85;;;;;;;11.74;66.27;100294.86;1708765;82;21034;-80
2021/11/01 13:42:43;;;;;;;54.53;32.20;;;;;;;11.60;67.72;100291.90;1714516;82;21069;-79
2021/11/01 13:45:16;;;;;;;58.70;34.80;;;;;;;11.44;67.54;100284.56;1717860;82;22039;-79
2021/11/01 13:47:47;;;;;;;53.10;28.27;;;;;;;11.34;68.32;100284.06;1715147;82;21063;-85
2021/11/01 13:50:16;;;;;;;52.45;29.20;;;;;;;11.22;70.11;100280.55;1703166;82;21090;-81
2021/11/01 13:52:46;;;;;;;48.10;28.50;;;;;;;11.08;69.71;100285.01;1692246;82;21055;-81
2021/11/01 13:57:52;;;;;;;73.07;43.55;;;;;;;10.82;72.17;100287.74;1703655;82;21152;-84
2021/11/01 14:00:28;;;;;;;55.25;30.88;;;;;;;10.70;72.29;100291.20;1698066;82;22287;-82
2021/11/01 14:11:11;;;;;;;58.68;32.13;;;;;;;10.34;77.30;100288.52;1709079;82;21108;-83
2021/11/01 14:29:25;;;;;;;71.92;40.12;;;;;;;9.48;80.71;100306.53;1716208;83;21081;-80
2021/11/01 14:32:09;;;;;;;60.03;33.18;;;;;;;9.34;81.93;100314.82;1714274;83;21161;-79
2021/11/01 15:15:05;;;;;;;78.30;42.55;;;;;;;7.89;93.02;100291.87;1708255;81;21512;-80
2021/11/01 15:18:16;;;;;;;83.37;46.68;;;;;;;7.84;93.00;100298.98;1715835;82;21553;-80
2021/11/01 15:20:08;;;;;;;81.05;43.92;;;;;;;7.78;94.34;100294.30;1676333;83;21062;-82
2021/11/01 16:17:23;;;;;;;94.05;44.63;;;;;;;7.15;100.00;100302.64;1668796;85;21077;-83
2021/11/01 16:19:54;;;;;;;85.60;43.50;;;;;;;7.14;100.00;100306.17;1645431;86;21077;-83
2021/11/01 16:22:17;;;;;;;79.67;42.50;;;;;;;7.13;100.00;100300.50;1658232;85;21660;-82
2021/11/01 16:24:48;;;;;;;91.10;43.10;;;;;;;7.12;100.00;100301.41;1681182;85;21127;-83
2021/11/01 16:27:19;;;;;;;76.40;43.23;;;;;;;7.14;100.00;100304.86;1716262;83;21538;-83
2021/11/01 16:30:04;;;;;;;85.65;41.73;;;;;;;7.13;100.00;100303.12;1715926;83;21102;-83
2021/11/01 16:32:26;;;;;;;73.73;39.93;;;;;;;7.12;100.00;100306.65;1713874;83;21435;-83
2021/11/01 16:34:57;;;;;;;87.57;45.52;;;;;;;7.13;100.00;100309.67;1715919;83;21030;-82
2021/11/01 16:40:07;;;;;;;79.62;41.48;;;;;;;7.13;100.00;100317.52;1694744;83;21130;-83
2021/11/01 16:42:36;;;;;;;78.55;42.08;;;;;;;7.13;100.00;100308.36;1705574;83;21456;-82
2021/11/01 16:45:14;;;;;;;85.40;43.55;;;;;;;7.14;100.00;100315.34;1709333;82;21094;-83
2021/11/01 16:47:36;;;;;;;71.02;39.58;;;;;;;7.17;100.00;100315.27;1714796;83;21620;-83
2021/11/01 16:50:06;;;;;;;73.55;36.15;;;;;;;7.18;100.00;100318.32;1716404;83;21107;-84
2021/11/01 16:52:34;;;;;;;83.45;42.60;;;;;;;7.14;100.00;100315.34;1715285;83;21074;-83
2021/11/01 16:55:04;;;;;;;70.35;40.80;;;;;;;7.11;100.00;100315.41;1715701;83;21394;-83
2021/11/01 16:57:41;;;;;;;117.13;73.62;;;;;;;7.05;100.00;100318.14;1717960;83;21066;-82
2021/11/01 17:00:16;;;;;;;216.78;141.07;;;;;;;7.03;100.00;100321.23;1660682;85;21100;-83
2021/11/01 17:02:49;;;;;;;83.40;43.90;;;;;;;6.98;100.00;100312.61;1647441;85;21562;-83
2021/11/01 17:05:31;;;;;;;82.78;44.53;;;;;;;6.98;100.00;100321.77;1652741;86;21304;-81
2021/11/01 17:08:11;;;;;;;108.32;63.20;;;;;;;6.98;100.00;100313.92;1676348;85;22244;-77
2021/11/01 17:10:46;;;;;;;88.58;46.35;;;;;;;6.96;100.00;100311.77;1649211;86;21517;-74
2021/11/01 17:24:05;;;;;;;123.62;65.10;;;;;;;6.93;100.00;100301.77;1680618;82;21609;-74
2021/11/01 18:41:24;;;;;;;106.90;53.15;;;;;;;5.54;100.00;100243.49;1686037;84;21131;-73
2021/11/01 18:52:02;;;;;;;115.00;58.45;;;;;;;5.33;100.00;100243.81;1701454;82;21181;-73
2021/11/01 18:54:35;;;;;;;120.05;59.85;;;;;;;5.29;100.00;100240.81;1702266;83;21567;-74
2021/11/01 18:57:03;;;;;;;114.60;57.98;;;;;;;5.23;100.00;100237.41;1704091;82;21010;-74
2021/11/01 18:59:37;;;;;;;104.33;53.10;;;;;;;5.19;100.00;100238.77;1708963;83;21054;-76
2021/11/01 19:05:05;;;;;;;129.55;61.88;;;;;;;5.13;100.00;100225.38;1689522;84;21944;-74
2021/11/01 19:07:40;;;;;;;124.27;61.98;;;;;;;5.10;100.00;100229.75;1703528;83;21073;-73
2021/11/01 19:10:41;;;;;;;142.87;70.92;;;;;;;5.05;100.00;100222.84;1706240;83;21061;-72
2021/11/01 20:05:15;;;;;;;124.05;61.68;;;;;;;4.59;100.00;100209.50;1709348;83;21641;-77
2021/11/01 21:25:23;;;;;;;121.90;59.65;;;;;;;3.96;100.00;100148.91;1672174;84;21091;-76
2021/11/01 21:27:50;;;;;;;125.25;61.53;;;;;;;3.93;100.00;100139.79;1696834;84;21108;-77
2021/11/01 21:30:17;;;;;;;134.90;65.15;;;;;;;3.91;100.00;100142.43;1696669;84;21571;-75
2021/11/01 21:32:44;;;;;;;117.40;57.27;;;;;;;3.87;100.00;100132.91;1696511;84;21603;-75
2021/11/01 21:35:14;;;;;;;124.95;61.40;;;;;;;3.86;100.00;100131.16;1696411;84;21661;-75
2021/11/01 21:37:40;;;;;;;124.42;61.83;;;;;;;3.86;100.00;100128.56;1696705;84;21045;-77
2021/11/01 21:40:10;;;;;;;119.05;57.98;;;;;;;3.89;100.00;100125.95;1696765;84;21513;-74
2021/11/01 21:42:36;;;;;;;128.87;60.70;;;;;;;3.93;100.00;100129.37;1697696;83;21045;-78
2021/11/01 21:45:04;;;;;;;104.75;54.15;;;;;;;3.95;100.00;100125.86;1697947;83;21015;-76
2021/11/01 21:47:30;;;;;;;102.20;53.35;;;;;;;4.02;100.00;100127.11;1697853;84;21219;-75
2021/11/01 21:49:57;;;;;;;120.37;60.03;;;;;;;4.06;100.00;100123.16;1697883;84;21011;-76
2021/11/01 21:52:25;;;;;;;123.42;61.08;;;;;;;4.09;100.00;100127.47;1697974;83;21173;-75
2021/11/01 21:54:55;;;;;;;120.85;60.10;;;;;;;4.12;100.00;100131.38;1697736;83;21041;-75
2021/11/01 22:21:04;;;;;;;127.70;64.40;;;;;;;3.98;100.00;100112.83;1659741;86;21093;-74
2021/11/01 22:34:13;;;;;;;120.45;63.45;;;;;;;4.02;100.00;100091.94;1718150;83;21498;-75
2021/11/01 22:41:37;;;;;;;123.55;61.83;;;;;;;4.03;100.00;100091.93;1747955;82;21036;-74
2021/11/01 22:44:30;;;;;;;123.10;62.13;;;;;;;4.05;100.00;100089.28;1746203;82;21493;-73
2021/11/01 22:46:48;;;;;;;129.10;60.52;;;;;;;4.06;100.00;100087.13;1743407;81;21093;-74